Terminal Aerodrome Forecast
Issued by NWS Newport/Morehead City, NC

Home | Current Version | Previous Version | Text Only | Print | Product List | Glossary Off
Versions: 1 2 3 4 5 6 7 8 9 10 11 12 13 14 15 16 17 18 19

000
FTUS42 KMHX 171142
TAFEWN
TAF
KEWN 171142Z 1712/1812 02006KT 5SM BR OVC007
     FM171500 03007KT P6SM VCSH SCT008 OVC025
     FM171900 04008KT P6SM VCSH OVC070
     FM172100 04008KT P6SM BKN050
     FM180400 02006KT P6SM OVC005=

USA.gov is the U.S. government's official web portal to all federal, state and local government web resources and services.